Time;durP1;ratioP1;P1;durP2;ratioP2;P2;SDS_P1;SDS_P2;PMS_P1;PMS_P2;Temp;Humidity;BMP_temperature;BMP_pressure;BME280_temperature;BME280_humidity;BME280_pressure;Samples;Min_cycle;Max_cycle;Signal;HPM_P1;HPM_P2
2021/04/29 00:01:57;;;;;;;6.38;4.22;;;19.00;55.20;;;;;;6245539;23;19997;-76
2021/04/29 00:04:22;;;;;;;4.47;3.22;;;19.00;55.10;;;;;;6244748;23;20004;-75
2021/04/29 00:06:48;;;;;;;4.80;3.30;;;19.00;55.10;;;;;;6244850;23;20007;-76
2021/04/29 00:09:14;;;;;;;4.30;3.60;;;19.00;55.00;;;;;;6242952;23;20000;-75
2021/04/29 00:11:40;;;;;;;5.43;3.33;;;19.00;55.10;;;;;;6245094;23;20405;-76
2021/04/29 00:14:07;;;;;;;4.93;2.97;;;19.00;55.00;;;;;;6244998;23;20000;-76
2021/04/29 00:16:34;;;;;;;5.70;3.47;;;19.00;55.00;;;;;;6244924;23;20005;-75
2021/04/29 00:19:00;;;;;;;5.78;3.25;;;19.00;55.00;;;;;;6245284;23;20313;-76
2021/04/29 00:21:25;;;;;;;5.63;3.70;;;19.00;55.00;;;;;;6244717;23;20011;-76
2021/04/29 00:23:51;;;;;;;6.43;4.28;;;18.90;54.90;;;;;;6244510;23;20010;-75
2021/04/29 00:26:16;;;;;;;5.15;3.38;;;19.00;54.90;;;;;;6244568;23;20468;-75
2021/04/29 00:28:42;;;;;;;5.25;3.10;;;18.90;54.90;;;;;;6244855;23;20007;-76
2021/04/29 00:31:08;;;;;;;4.65;3.33;;;18.90;54.90;;;;;;6244726;23;20004;-75
2021/04/29 00:33:33;;;;;;;4.03;3.03;;;18.90;54.90;;;;;;6244770;23;20007;-75
2021/04/29 00:36:02;;;;;;;4.70;3.22;;;18.90;54.80;;;;;;6245042;23;20031;-75
2021/04/29 00:38:28;;;;;;;4.88;3.40;;;18.90;54.80;;;;;;6244421;23;20007;-76
2021/04/29 00:40:54;;;;;;;5.63;3.42;;;18.90;54.80;;;;;;6244747;23;20054;-73
2021/04/29 00:43:20;;;;;;;4.78;3.65;;;18.90;54.80;;;;;;6244569;23;20141;-75
2021/04/29 00:45:46;;;;;;;3.85;2.90;;;18.80;54.70;;;;;;6243256;23;20062;-75
2021/04/29 00:48:12;;;;;;;4.15;2.92;;;18.80;55.30;;;;;;6244419;23;20005;-75
2021/04/29 00:50:38;;;;;;;4.40;3.47;;;18.80;54.80;;;;;;6244453;23;20004;-75
2021/04/29 00:53:04;;;;;;;4.88;3.30;;;18.80;54.70;;;;;;6244487;23;20373;-75
2021/04/29 00:55:29;;;;;;;5.38;3.80;;;18.80;55.20;;;;;;6244930;23;20004;-75
2021/04/29 00:57:55;;;;;;;5.55;2.92;;;18.80;54.70;;;;;;6244584;23;20008;-76
2021/04/29 01:00:21;;;;;;;4.43;3.20;;;18.80;54.70;;;;;;6244448;23;20007;-76
2021/04/29 01:02:52;;;;;;;4.00;2.95;;;18.80;54.70;;;;;;6244391;23;20075;-75
2021/04/29 01:05:27;;;;;;;3.60;2.67;;;18.80;54.70;;;;;;6244239;23;20083;-75
2021/04/29 01:08:14;;;;;;;4.28;3.13;;;18.70;54.70;;;;;;6244474;23;20007;-76
2021/04/29 01:10:52;;;;;;;3.85;3.10;;;18.70;54.70;;;;;;6244279;23;20023;-76
2021/04/29 01:13:24;;;;;;;4.55;2.92;;;18.70;54.70;;;;;;6244310;23;20508;-75
2021/04/29 01:15:50;;;;;;;4.00;3.00;;;18.70;54.70;;;;;;6244280;23;20004;-75
2021/04/29 01:18:18;;;;;;;4.90;3.55;;;18.70;54.80;;;;;;6244656;23;20005;-75
2021/04/29 01:20:59;;;;;;;4.80;3.25;;;18.70;54.80;;;;;;6244337;23;20337;-73
2021/04/29 01:23:40;;;;;;;5.55;2.72;;;18.70;54.80;;;;;;6242495;23;20054;-76
2021/04/29 01:26:19;;;;;;;5.25;3.00;;;18.70;54.80;;;;;;6243992;23;20046;-76
2021/04/29 01:28:48;;;;;;;4.05;2.75;;;18.70;54.80;;;;;;6244396;23;20000;-74
2021/04/29 01:31:14;;;;;;;5.97;2.95;;;18.70;54.90;;;;;;6244199;23;20452;-76
2021/04/29 01:33:40;;;;;;;4.00;2.65;;;18.60;54.90;;;;;;6244212;23;20001;-75
2021/04/29 01:36:08;;;;;;;4.32;2.53;;;18.60;54.90;;;;;;6242428;23;20062;-76
2021/04/29 01:38:35;;;;;;;3.50;2.40;;;18.60;54.90;;;;;;6244239;23;20054;-76
2021/04/29 01:41:01;;;;;;;3.97;2.47;;;18.60;54.90;;;;;;6244018;23;20006;-75
2021/04/29 01:43:28;;;;;;;4.10;2.42;;;18.60;54.90;;;;;;6244180;23;20518;-76
2021/04/29 01:45:54;;;;;;;6.18;2.40;;;18.60;54.90;;;;;;6243828;23;20012;-75
2021/04/29 01:48:20;;;;;;;3.72;2.20;;;18.60;54.90;;;;;;6243633;23;20003;-75
2021/04/29 01:50:46;;;;;;;5.22;2.17;;;18.60;54.90;;;;;;6243934;23;20000;-75
2021/04/29 01:53:12;;;;;;;3.67;2.13;;;18.60;54.90;;;;;;6243364;23;20000;-76
2021/04/29 01:55:38;;;;;;;4.10;2.40;;;18.60;54.90;;;;;;6243866;23;20004;-75
2021/04/29 01:58:04;;;;;;;4.50;2.38;;;18.60;54.90;;;;;;6244482;23;20000;-75
2021/04/29 02:00:30;;;;;;;4.85;2.75;;;18.50;54.90;;;;;;6243449;23;20065;-75
2021/04/29 02:02:59;;;;;;;6.35;2.85;;;18.50;54.90;;;;;;6243802;23;20115;-75
2021/04/29 02:05:24;;;;;;;4.97;2.65;;;18.50;55.00;;;;;;6243921;23;20087;-76
2021/04/29 02:07:50;;;;;;;4.82;3.00;;;18.50;55.00;;;;;;6243697;23;20512;-75
2021/04/29 02:10:17;;;;;;;4.93;2.60;;;18.50;55.00;;;;;;6244115;23;20005;-76
2021/04/29 02:12:48;;;;;;;3.83;2.35;;;18.50;55.00;;;;;;6244211;23;20008;-76
2021/04/29 02:15:15;;;;;;;5.25;2.55;;;18.50;55.10;;;;;;6244058;23;20032;-76
2021/04/29 02:17:48;;;;;;;4.43;2.03;;;18.50;55.00;;;;;;6242233;23;20000;-75
2021/04/29 02:20:15;;;;;;;4.15;2.40;;;18.50;55.10;;;;;;6243848;23;20376;-75
2021/04/29 02:22:43;;;;;;;4.40;2.60;;;18.50;55.10;;;;;;6244146;23;20050;-75
2021/04/29 02:25:14;;;;;;;6.78;2.72;;;18.50;55.20;;;;;;6244120;23;20053;-75
2021/04/29 02:27:40;;;;;;;3.80;2.35;;;18.50;55.10;;;;;;6241997;23;20093;-76
2021/04/29 02:30:11;;;;;;;3.88;2.15;;;18.40;55.00;;;;;;6244483;23;20004;-75
2021/04/29 02:32:38;;;;;;;4.43;2.20;;;18.50;55.10;;;;;;6244354;23;20012;-75
2021/04/29 02:35:06;;;;;;;4.55;2.17;;;18.50;55.10;;;;;;6243946;23;20000;-76
2021/04/29 02:37:32;;;;;;;6.50;2.58;;;18.50;55.10;;;;;;6242319;23;20008;-76
2021/04/29 02:39:58;;;;;;;3.42;2.38;;;18.40;55.00;;;;;;6242161;23;20008;-75
2021/04/29 02:42:24;;;;;;;4.03;1.98;;;18.50;55.10;;;;;;6243615;23;20079;-75
2021/04/29 02:44:50;;;;;;;4.05;2.33;;;18.40;55.00;;;;;;6243669;23;20423;-75
2021/04/29 02:47:16;;;;;;;4.82;2.38;;;18.40;55.00;;;;;;6243713;23;19996;-75
2021/04/29 02:49:42;;;;;;;5.15;2.58;;;18.40;55.10;;;;;;6243604;23;20027;-75
2021/04/29 02:52:10;;;;;;;5.93;2.67;;;18.40;55.10;;;;;;6244187;23;20055;-75
2021/04/29 02:54:35;;;;;;;4.13;2.38;;;18.40;55.00;;;;;;6244297;23;20003;-75
2021/04/29 02:57:01;;;;;;;3.65;2.30;;;18.40;55.00;;;;;;6243585;23;20004;-75
2021/04/29 02:59:30;;;;;;;5.47;2.72;;;18.40;55.00;;;;;;6242522;23;20008;-75
2021/04/29 03:01:56;;;;;;;3.92;2.40;;;18.40;55.00;;;;;;6241808;23;20009;-75
2021/04/29 03:04:22;;;;;;;4.30;2.83;;;18.40;55.00;;;;;;6243717;23;20444;-75
2021/04/29 03:06:47;;;;;;;4.75;2.47;;;18.40;55.00;;;;;;6245083;23;20036;-76
2021/04/29 03:09:13;;;;;;;4.05;2.38;;;18.40;55.00;;;;;;6245562;23;20000;-73
2021/04/29 03:11:38;;;;;;;3.90;2.10;;;18.40;55.10;;;;;;6245891;23;20346;-73
2021/04/29 03:14:05;;;;;;;5.93;2.40;;;18.40;55.10;;;;;;6245519;23;20000;-76
2021/04/29 03:16:31;;;;;;;4.47;2.35;;;18.30;55.10;;;;;;6245373;23;20004;-75
2021/04/29 03:18:56;;;;;;;3.95;2.38;;;18.30;55.10;;;;;;6245556;23;20003;-75
2021/04/29 03:21:22;;;;;;;4.95;2.58;;;18.30;55.00;;;;;;6245576;23;20026;-75
2021/04/29 03:23:48;;;;;;;4.78;2.10;;;18.30;55.10;;;;;;6245429;23;20050;-75
2021/04/29 03:26:13;;;;;;;4.93;2.42;;;18.30;55.10;;;;;;6245334;23;20012;-75
2021/04/29 03:28:39;;;;;;;3.35;2.00;;;18.30;55.10;;;;;;6245662;23;19997;-75
2021/04/29 03:31:05;;;;;;;3.13;2.08;;;18.30;55.10;;;;;;6245030;23;20345;-76
2021/04/29 03:33:30;;;;;;;4.20;2.38;;;18.30;55.10;;;;;;6245579;23;20001;-75
2021/04/29 03:35:56;;;;;;;6.63;2.33;;;18.30;55.00;;;;;;6245319;23;19996;-75
2021/04/29 03:38:22;;;;;;;3.90;2.22;;;18.30;55.10;;;;;;6245360;23;20379;-75
2021/04/29 03:40:47;;;;;;;4.88;2.67;;;18.30;55.10;;;;;;6243511;23;20004;-76
2021/04/29 03:43:13;;;;;;;4.25;2.20;;;18.30;55.10;;;;;;6243684;23;20012;-75
2021/04/29 03:45:39;;;;;;;3.67;2.10;;;18.30;55.10;;;;;;6245341;23;20475;-75
2021/04/29 03:48:05;;;;;;;3.50;1.98;;;18.30;55.10;;;;;;6245277;23;20325;-75
2021/04/29 03:50:31;;;;;;;3.85;2.20;;;18.30;55.10;;;;;;6245267;22;20004;-76
2021/04/29 03:52:56;;;;;;;4.93;2.60;;;18.20;55.00;;;;;;6244882;23;19999;-75
2021/04/29 03:55:22;;;;;;;4.50;2.30;;;18.20;55.00;;;;;;6245342;23;20030;-74
2021/04/29 03:57:48;;;;;;;3.70;2.25;;;18.20;55.10;;;;;;6245302;22;20024;-75
2021/04/29 04:00:14;;;;;;;4.60;2.40;;;18.20;55.00;;;;;;6243333;23;20467;-74
2021/04/29 04:02:40;;;;;;;3.67;2.08;;;18.20;55.00;;;;;;6245433;23;20000;-75
2021/04/29 04:05:07;;;;;;;5.10;2.70;;;18.20;55.00;;;;;;6245001;23;20000;-75
2021/04/29 04:07:33;;;;;;;3.97;2.17;;;18.20;55.00;;;;;;6245088;23;20390;-75
2021/04/29 04:09:59;;;;;;;2.55;1.58;;;18.20;55.10;;;;;;6245271;23;19996;-75
2021/04/29 04:12:25;;;;;;;3.65;1.95;;;18.20;55.00;;;;;;6243242;23;20015;-75
2021/04/29 04:14:50;;;;;;;4.95;2.00;;;18.20;55.00;;;;;;6244879;23;20008;-75
2021/04/29 04:17:16;;;;;;;3.88;1.83;;;18.20;55.10;;;;;;6244695;23;20031;-75
2021/04/29 04:19:41;;;;;;;4.28;2.13;;;18.20;55.10;;;;;;6243506;23;20008;-75
2021/04/29 04:22:07;;;;;;;3.55;2.00;;;18.20;55.00;;;;;;6244818;23;20061;-75
2021/04/29 04:24:33;;;;;;;3.05;1.90;;;18.20;55.00;;;;;;6244600;23;20004;-73
2021/04/29 04:26:58;;;;;;;3.05;1.77;;;18.10;54.90;;;;;;6244673;23;20008;-72
2021/04/29 04:29:24;;;;;;;3.03;1.60;;;18.20;55.00;;;;;;6244756;23;20004;-75
2021/04/29 04:31:50;;;;;;;4.05;2.08;;;18.20;54.90;;;;;;6244602;23;20024;-75
2021/04/29 04:34:15;;;;;;;3.35;1.90;;;18.20;55.00;;;;;;6244870;23;19996;-75
2021/04/29 04:36:41;;;;;;;3.78;1.67;;;18.10;55.00;;;;;;6243364;23;20031;-75
2021/04/29 04:39:07;;;;;;;3.63;1.95;;;18.10;55.00;;;;;;6244620;23;20348;-75
2021/04/29 04:41:32;;;;;;;3.40;1.70;;;18.10;55.00;;;;;;6244569;23;20040;-74
2021/04/29 04:43:58;;;;;;;2.60;1.50;;;18.10;55.00;;;;;;6244578;23;20054;-74
2021/04/29 04:46:25;;;;;;;2.97;1.92;;;18.10;55.00;;;;;;6244637;23;20083;-74
2021/04/29 04:48:50;;;;;;;3.10;1.92;;;18.10;55.00;;;;;;6244537;23;20035;-75
2021/04/29 04:51:16;;;;;;;3.13;1.70;;;18.00;55.00;;;;;;6244877;23;20004;-75
2021/04/29 04:53:42;;;;;;;1.98;1.52;;;18.00;54.90;;;;;;6244622;23;20000;-75
2021/04/29 04:56:07;;;;;;;3.50;1.77;;;18.10;55.00;;;;;;6244364;23;20074;-74
2021/04/29 04:58:33;;;;;;;2.97;1.58;;;18.00;55.00;;;;;;6244339;23;19996;-75
2021/04/29 05:00:59;;;;;;;3.22;1.77;;;18.00;54.90;;;;;;6244308;23;20011;-75
2021/04/29 05:03:26;;;;;;;4.28;1.58;;;18.00;55.00;;;;;;6244401;23;20000;-74
2021/04/29 05:05:52;;;;;;;3.00;1.48;;;18.00;54.90;;;;;;6244480;23;20445;-75
2021/04/29 05:08:17;;;;;;;4.00;2.00;;;18.00;54.80;;;;;;6242694;23;20096;-74
2021/04/29 05:10:43;;;;;;;2.70;1.63;;;18.00;54.80;;;;;;6244788;23;20034;-75
2021/04/29 05:13:09;;;;;;;3.83;2.03;;;18.00;54.80;;;;;;6244275;23;20003;-75
2021/04/29 05:15:35;;;;;;;5.60;1.90;;;18.00;54.70;;;;;;6244355;23;20000;-76
2021/04/29 05:18:02;;;;;;;2.88;1.88;;;18.10;54.80;;;;;;6244382;23;20028;-76
2021/04/29 05:20:28;;;;;;;3.35;1.88;;;18.00;54.70;;;;;;6244321;23;20010;-75
2021/04/29 05:22:54;;;;;;;3.33;1.70;;;18.00;54.60;;;;;;6244217;23;20490;-75
2021/04/29 05:25:22;;;;;;;3.53;1.75;;;18.00;54.80;;;;;;6244223;23;20012;-74
2021/04/29 05:27:48;;;;;;;2.97;1.75;;;18.00;54.80;;;;;;6243942;23;20441;-76
2021/04/29 05:30:14;;;;;;;3.08;1.70;;;18.00;54.70;;;;;;6244269;23;20006;-75
2021/04/29 05:32:40;;;;;;;3.28;1.60;;;18.00;54.60;;;;;;6244199;23;19996;-75
2021/04/29 05:35:06;;;;;;;2.65;1.75;;;18.00;54.80;;;;;;6244230;23;20003;-74
2021/04/29 05:37:31;;;;;;;3.15;1.60;;;18.00;54.80;;;;;;6244198;23;20004;-77
2021/04/29 05:39:57;;;;;;;4.35;1.90;;;18.00;54.70;;;;;;6244152;23;20039;-75
2021/04/29 05:42:23;;;;;;;3.25;1.70;;;18.00;54.70;;;;;;6243782;23;20007;-75
2021/04/29 05:44:49;;;;;;;3.38;1.42;;;18.00;54.80;;;;;;6244117;23;20012;-75
2021/04/29 05:47:14;;;;;;;3.08;1.50;;;18.00;54.80;;;;;;6244049;23;20014;-75
2021/04/29 05:49:43;;;;;;;3.00;1.92;;;18.00;54.90;;;;;;6243585;23;20318;-74
2021/04/29 05:52:10;;;;;;;3.33;1.65;;;17.90;54.90;;;;;;6243666;23;20057;-75
2021/04/29 05:54:36;;;;;;;2.53;1.52;;;17.90;54.90;;;;;;6243634;23;20071;-75
2021/04/29 05:57:04;;;;;;;2.83;1.63;;;17.90;55.50;;;;;;6243492;23;19996;-74
2021/04/29 05:59:30;;;;;;;4.00;1.90;;;17.90;55.00;;;;;;6244438;23;20043;-73
2021/04/29 06:01:56;;;;;;;3.28;1.50;;;17.90;55.00;;;;;;6244135;23;19996;-74
2021/04/29 06:04:22;;;;;;;3.15;1.58;;;17.90;55.00;;;;;;6243742;23;20501;-74
2021/04/29 06:06:48;;;;;;;4.32;1.88;;;17.90;54.90;;;;;;6244213;23;20057;-75
2021/04/29 06:09:15;;;;;;;2.70;1.67;;;17.90;54.80;;;;;;6243877;23;20024;-75
2021/04/29 06:11:41;;;;;;;3.33;1.70;;;17.90;54.80;;;;;;6243768;23;20008;-75
2021/04/29 06:14:10;;;;;;;4.30;1.77;;;17.90;54.70;;;;;;6243916;23;20000;-74
2021/04/29 06:16:36;;;;;;;3.40;1.80;;;18.00;54.60;;;;;;6244075;23;20075;-74
2021/04/29 06:19:02;;;;;;;5.55;1.70;;;18.00;54.50;;;;;;6243873;23;20024;-74
2021/04/29 06:21:27;;;;;;;2.97;1.13;;;18.00;54.50;;;;;;6243918;23;20008;-74
2021/04/29 06:23:53;;;;;;;5.95;1.30;;;18.10;54.50;;;;;;6243809;23;20003;-75
2021/04/29 06:26:18;;;;;;;4.53;1.88;;;18.20;54.50;;;;;;6242374;23;20016;-75
2021/04/29 06:28:44;;;;;;;3.17;1.20;;;18.20;54.50;;;;;;6244140;23;20452;-75
2021/04/29 06:31:10;;;;;;;3.45;1.35;;;18.30;54.60;;;;;;6244253;23;20004;-74
2021/04/29 06:33:35;;;;;;;1.98;0.85;;;18.30;54.60;;;;;;6243893;23;20055;-74
2021/04/29 06:36:01;;;;;;;5.00;1.33;;;18.40;54.80;;;;;;6242134;23;20050;-74
2021/04/29 06:38:27;;;;;;;3.53;1.23;;;18.40;55.00;;;;;;6243726;23;20011;-74
2021/04/29 06:40:52;;;;;;;9.93;2.17;;;18.50;54.50;;;;;;6244078;23;20333;-74
2021/04/29 06:43:18;;;;;;;4.40;1.30;;;18.50;54.50;;;;;;6246256;23;20000;-75
2021/04/29 06:45:44;;;;;;;3.92;1.50;;;18.50;54.20;;;;;;6245565;23;20416;-72
2021/04/29 06:48:10;;;;;;;3.45;1.20;;;18.60;54.80;;;;;;6245833;23;20000;-74
2021/04/29 06:50:38;;;;;;;3.80;1.20;;;18.70;54.50;;;;;;6245718;23;20045;-74
2021/04/29 06:53:04;;;;;;;5.43;1.20;;;18.70;54.30;;;;;;6245656;23;20007;-75
2021/04/29 06:55:31;;;;;;;4.45;1.40;;;18.70;54.60;;;;;;6243983;23;20004;-74
2021/04/29 06:57:56;;;;;;;2.28;1.20;;;18.70;54.20;;;;;;6245574;23;20126;-74
2021/04/29 07:00:24;;;;;;;5.88;1.02;;;18.70;54.10;;;;;;6245844;23;20039;-74
2021/04/29 07:02:50;;;;;;;3.92;1.10;;;18.70;54.40;;;;;;6245824;23;20391;-74
2021/04/29 07:05:15;;;;;;;6.45;1.25;;;18.70;54.50;;;;;;6245742;23;20092;-74
2021/04/29 07:07:41;;;;;;;4.40;1.00;;;18.70;54.70;;;;;;6245527;23;19996;-74
2021/04/29 07:10:07;;;;;;;2.35;0.95;;;18.70;54.60;;;;;;6245706;23;20008;-74
2021/04/29 07:12:33;;;;;;;3.67;1.00;;;18.70;54.80;;;;;;6244112;23;20000;-75
2021/04/29 07:14:59;;;;;;;4.68;1.00;;;18.70;54.70;;;;;;6243755;23;20448;-74
2021/04/29 07:17:24;;;;;;;1.90;1.00;;;18.60;54.60;;;;;;6242538;23;20004;-74
2021/04/29 07:19:50;;;;;;;4.35;0.90;;;18.60;54.80;;;;;;6245138;23;20000;-73
2021/04/29 07:22:15;;;;;;;4.05;1.20;;;18.60;54.80;;;;;;6244662;23;20564;-72
2021/04/29 07:24:43;;;;;;;3.47;1.02;;;18.60;55.30;;;;;;6244870;23;20004;-74
2021/04/29 07:27:09;;;;;;;3.80;1.30;;;18.60;54.80;;;;;;6245196;23;20090;-73
2021/04/29 07:29:34;;;;;;;3.00;0.73;;;18.60;54.80;;;;;;6243683;23;20176;-74
2021/04/29 07:32:00;;;;;;;4.82;0.93;;;18.60;54.80;;;;;;6245165;23;20058;-74
2021/04/29 07:34:26;;;;;;;2.40;0.90;;;18.60;54.80;;;;;;6242949;23;20004;-74
2021/04/29 07:36:52;;;;;;;3.67;0.88;;;18.60;54.80;;;;;;6245252;23;20104;-75
2021/04/29 07:39:18;;;;;;;2.50;0.88;;;18.60;55.30;;;;;;6243719;23;20000;-74
2021/04/29 07:41:44;;;;;;;1.92;0.70;;;18.60;54.80;;;;;;6245092;23;20015;-75
2021/04/29 07:44:10;;;;;;;1.80;0.73;;;18.60;54.80;;;;;;6244810;23;20024;-74
2021/04/29 07:46:35;;;;;;;4.03;1.23;;;18.60;54.90;;;;;;6244399;23;20012;-75
2021/04/29 07:49:01;;;;;;;4.47;0.82;;;18.60;54.90;;;;;;6244572;23;20437;-75
2021/04/29 07:51:27;;;;;;;2.38;0.95;;;18.60;54.90;;;;;;6244561;23;20087;-74
2021/04/29 07:53:53;;;;;;;4.07;1.20;;;18.60;55.00;;;;;;6244336;23;20000;-73
2021/04/29 07:56:18;;;;;;;4.15;1.25;;;18.60;55.00;;;;;;6245124;23;20000;-74
2021/04/29 07:58:44;;;;;;;2.92;1.17;;;18.60;55.60;;;;;;6244983;23;20054;-72
2021/04/29 08:01:10;;;;;;;2.25;0.90;;;18.50;55.20;;;;;;6244353;23;20050;-74
2021/04/29 08:03:36;;;;;;;4.97;1.05;;;18.50;55.10;;;;;;6245026;23;20453;-73
2021/04/29 08:06:02;;;;;;;1.40;0.73;;;18.60;55.10;;;;;;6244607;23;20012;-74
2021/04/29 08:08:27;;;;;;;3.10;1.00;;;18.60;55.10;;;;;;6244827;23;20007;-74
2021/04/29 08:10:53;;;;;;;4.28;1.05;;;18.60;55.10;;;;;;6244879;23;20028;-74
2021/04/29 08:13:18;;;;;;;4.03;1.15;;;18.60;55.10;;;;;;6244756;23;20012;-74
2021/04/29 08:15:44;;;;;;;4.15;1.63;;;18.60;55.00;;;;;;6243912;23;20011;-74
2021/04/29 08:18:10;;;;;;;2.30;0.93;;;18.50;55.00;;;;;;6243824;23;20001;-73
2021/04/29 08:20:38;;;;;;;2.33;1.13;;;18.50;55.10;;;;;;6244208;23;20018;-74
2021/04/29 08:23:04;;;;;;;2.28;0.80;;;18.50;55.10;;;;;;6244833;23;20385;-74
2021/04/29 08:25:30;;;;;;;2.67;1.00;;;18.50;55.10;;;;;;6244614;23;20066;-72
2021/04/29 08:27:56;;;;;;;2.20;1.10;;;18.50;55.10;;;;;;6245110;23;20000;-74
2021/04/29 08:30:27;;;;;;;2.13;1.05;;;18.40;55.00;;;;;;6244402;23;20514;-74
2021/04/29 08:32:58;;;;;;;2.78;1.08;;;18.40;55.00;;;;;;6244384;23;20004;-74
2021/04/29 08:35:24;;;;;;;2.47;1.20;;;18.40;55.00;;;;;;6244676;23;20088;-74
2021/04/29 08:37:51;;;;;;;2.72;1.00;;;18.40;55.00;;;;;;6244606;23;20004;-74
2021/04/29 08:40:17;;;;;;;4.28;0.90;;;18.40;54.90;;;;;;6244526;23;20352;-74
2021/04/29 08:42:44;;;;;;;4.20;1.20;;;18.40;54.90;;;;;;6244442;23;19997;-73
2021/04/29 08:45:11;;;;;;;2.85;1.38;;;18.40;55.40;;;;;;6244455;23;20454;-74
2021/04/29 08:47:37;;;;;;;2.85;1.10;;;18.40;54.80;;;;;;6244545;23;20032;-74
2021/04/29 08:50:05;;;;;;;2.25;1.05;;;18.50;54.90;;;;;;6244194;22;20432;-74
2021/04/29 08:52:31;;;;;;;2.78;1.02;;;18.40;54.80;;;;;;6244516;23;19996;-74
2021/04/29 08:54:57;;;;;;;2.38;1.33;;;18.50;54.80;;;;;;6243308;23;20310;-74
2021/04/29 08:57:24;;;;;;;2.58;1.05;;;18.40;55.30;;;;;;6244630;23;20027;-74
2021/04/29 08:59:49;;;;;;;2.08;1.08;;;18.50;54.70;;;;;;6244434;23;19996;-74
2021/04/29 09:02:15;;;;;;;3.50;1.40;;;18.50;55.20;;;;;;6244005;23;20042;-74
2021/04/29 09:04:43;;;;;;;2.30;1.25;;;18.50;54.40;;;;;;6244047;23;20004;-74
2021/04/29 09:07:17;;;;;;;2.08;1.10;;;18.50;54.50;;;;;;6244622;23;20026;-74
2021/04/29 09:09:46;;;;;;;4.40;1.50;;;18.50;54.60;;;;;;6244076;23;20000;-73
2021/04/29 09:12:12;;;;;;;3.15;1.40;;;18.50;54.60;;;;;;6244279;23;20441;-73
2021/04/29 09:14:41;;;;;;;2.63;1.05;;;18.50;54.50;;;;;;6243870;23;20046;-74
2021/04/29 09:17:07;;;;;;;2.22;0.98;;;18.50;54.70;;;;;;6244005;23;20054;-73
2021/04/29 09:26:18;;;;;;;2.70;0.98;;;18.60;54.80;;;;;;6240924;23;20035;-71
2021/04/29 09:28:46;;;;;;;3.33;1.55;;;18.60;54.90;;;;;;6243479;23;20003;-73
2021/04/29 09:31:17;;;;;;;2.75;1.20;;;18.60;54.90;;;;;;6243047;23;20050;-73
2021/04/29 09:33:49;;;;;;;3.55;1.50;;;18.60;54.90;;;;;;6242800;23;20011;-73
2021/04/29 09:36:25;;;;;;;1.88;1.10;;;18.60;55.00;;;;;;6243787;23;20006;-72
2021/04/29 09:39:11;;;;;;;3.47;1.15;;;18.60;54.80;;;;;;6243727;23;20000;-74
2021/04/29 09:42:04;;;;;;;1.50;0.90;;;18.50;54.80;;;;;;6243790;23;20016;-71
2021/04/29 09:44:34;;;;;;;3.92;1.40;;;18.50;54.60;;;;;;6239273;23;20030;-73
2021/04/29 09:47:03;;;;;;;3.10;1.10;;;18.50;54.60;;;;;;6243473;23;20019;-74
2021/04/29 09:49:34;;;;;;;2.80;1.30;;;18.50;54.60;;;;;;6244532;23;20004;-73
2021/04/29 09:52:03;;;;;;;2.75;1.20;;;18.40;54.70;;;;;;6244146;23;20105;-74
2021/04/29 09:54:35;;;;;;;3.10;1.50;;;18.50;54.60;;;;;;6243966;23;20480;-74
2021/04/29 09:57:06;;;;;;;4.30;1.70;;;18.50;54.50;;;;;;6243945;23;20345;-73
2021/04/29 09:59:45;;;;;;;3.35;1.27;;;18.50;54.40;;;;;;6243958;23;19996;-73
2021/04/29 10:02:12;;;;;;;2.58;1.40;;;18.60;54.40;;;;;;6243753;23;20506;-73
2021/04/29 10:04:39;;;;;;;2.75;1.20;;;18.60;54.30;;;;;;6244501;23;20390;-74
2021/04/29 10:07:07;;;;;;;3.47;1.42;;;18.70;54.20;;;;;;6243615;23;20000;-74
2021/04/29 10:09:35;;;;;;;2.28;1.10;;;18.70;54.10;;;;;;6242525;23;20007;-73
2021/04/29 10:12:14;;;;;;;4.55;1.45;;;18.70;54.00;;;;;;6242504;23;20027;-74
2021/04/29 10:14:42;;;;;;;2.22;0.98;;;18.70;54.00;;;;;;6243044;23;20070;-74
2021/04/29 10:17:10;;;;;;;2.10;1.17;;;18.70;54.00;;;;;;6244801;23;20039;-74
2021/04/29 10:19:48;;;;;;;3.75;1.10;;;18.80;54.10;;;;;;6245224;23;20031;-74
2021/04/29 10:22:15;;;;;;;2.33;1.00;;;18.80;53.90;;;;;;6244554;22;20502;-74
2021/04/29 10:24:46;;;;;;;2.83;0.93;;;18.80;53.90;;;;;;6244399;23;20008;-74
2021/04/29 10:27:16;;;;;;;4.55;1.25;;;18.90;53.80;;;;;;6244326;23;20020;-74
2021/04/29 10:29:43;;;;;;;2.33;1.20;;;18.90;53.90;;;;;;6245346;23;20067;-74
2021/04/29 10:32:13;;;;;;;2.70;1.13;;;19.00;53.60;;;;;;6246242;23;20062;-74
2021/04/29 10:34:43;;;;;;;1.85;1.02;;;19.10;53.60;;;;;;6246220;23;20004;-74
2021/04/29 10:37:27;;;;;;;2.00;0.93;;;19.10;53.30;;;;;;6245726;23;20005;-73
2021/04/29 10:39:54;;;;;;;3.25;1.00;;;19.20;53.20;;;;;;6245823;23;20050;-76
2021/04/29 10:42:19;;;;;;;3.00;1.10;;;19.30;53.00;;;;;;6243854;23;20345;-79
2021/04/29 10:45:09;;;;;;;2.67;0.90;;;19.40;53.60;;;;;;6245330;22;20086;-82
2021/04/29 10:47:38;;;;;;;2.40;1.00;;;19.40;53.00;;;;;;6244696;23;20035;-81
2021/04/29 10:50:14;;;;;;;2.50;1.27;;;19.50;53.00;;;;;;6245700;23;20035;-79
2021/04/29 10:52:51;;;;;;;3.50;1.30;;;19.50;53.30;;;;;;6246180;23;20456;-78
2021/04/29 10:55:31;;;;;;;4.10;1.25;;;19.60;53.30;;;;;;6245285;23;20000;-78
2021/04/29 10:57:59;;;;;;;5.47;0.90;;;19.70;53.20;;;;;;6245303;23;20004;-78
2021/04/29 11:00:27;;;;;;;4.70;1.20;;;19.70;53.20;;;;;;6245674;23;20003;-77
2021/04/29 11:03:11;;;;;;;3.88;1.30;;;19.80;53.60;;;;;;6245586;23;20004;-78
2021/04/29 11:05:37;;;;;;;5.30;1.35;;;19.90;54.80;;;;;;6245833;23;20008;-78
2021/04/29 11:08:09;;;;;;;7.43;1.48;;;20.00;54.70;;;;;;6245389;23;20004;-81
2021/04/29 11:10:40;;;;;;;4.15;1.48;;;20.10;55.40;;;;;;6245200;23;20011;-79
2021/04/29 11:13:07;;;;;;;3.20;1.17;;;20.10;54.90;;;;;;6245462;23;20042;-79
2021/04/29 11:15:38;;;;;;;8.55;1.35;;;20.30;54.90;;;;;;6245472;23;20496;-81
2021/04/29 11:18:09;;;;;;;5.15;1.20;;;20.40;54.70;;;;;;6245300;23;20004;-80
2021/04/29 11:20:47;;;;;;;4.22;1.38;;;20.40;54.50;;;;;;6243147;23;20352;-78
2021/04/29 11:23:15;;;;;;;2.95;1.25;;;20.50;54.60;;;;;;6244058;23;20001;-78
2021/04/29 11:25:41;;;;;;;4.35;1.30;;;20.60;54.60;;;;;;6244116;23;20044;-78
2021/04/29 11:28:07;;;;;;;2.88;1.15;;;20.70;54.60;;;;;;6243351;23;20050;-78
2021/04/29 11:30:34;;;;;;;3.72;0.95;;;20.80;54.50;;;;;;6245165;23;20011;-81
2021/04/29 11:33:04;;;;;;;4.25;1.27;;;20.90;54.80;;;;;;6244598;23;20007;-84
2021/04/29 11:35:33;;;;;;;4.90;1.42;;;21.00;54.60;;;;;;6244589;23;20011;-84
2021/04/29 11:38:01;;;;;;;3.22;1.30;;;21.20;54.60;;;;;;6244674;23;20001;-81
2021/04/29 11:40:29;;;;;;;3.25;1.30;;;21.30;54.50;;;;;;6244821;23;20000;-83
2021/04/29 11:42:56;;;;;;;7.88;1.55;;;21.40;54.60;;;;;;6244685;23;20452;-81
2021/04/29 11:45:28;;;;;;;2.45;1.15;;;21.50;53.90;;;;;;6244997;23;20439;-81
2021/04/29 11:48:01;;;;;;;3.40;1.00;;;21.50;53.60;;;;;;6245097;23;20345;-80
2021/04/29 11:50:34;;;;;;;2.05;0.88;;;21.60;53.40;;;;;;6244819;23;20000;-81
2021/04/29 11:53:07;;;;;;;2.35;1.00;;;21.60;53.30;;;;;;6243865;23;19996;-81
2021/04/29 11:55:34;;;;;;;2.85;1.23;;;21.60;53.20;;;;;;6243590;23;20003;-80
2021/04/29 11:58:02;;;;;;;2.03;1.00;;;21.60;53.00;;;;;;6243254;23;20387;-81
2021/04/29 12:00:34;;;;;;;2.10;0.88;;;21.60;53.00;;;;;;6242976;23;20008;-81
2021/04/29 12:03:01;;;;;;;1.95;1.20;;;21.50;53.40;;;;;;6244931;23;20067;-80
2021/04/29 12:06:05;;;;;;;3.63;1.08;;;21.50;52.90;;;;;;6245003;23;20035;-79
2021/04/29 12:08:33;;;;;;;3.50;1.58;;;21.50;52.90;;;;;;6181815;23;20467;-77
2021/04/29 12:11:09;;;;;;;3.08;1.10;;;21.50;52.90;;;;;;6181283;23;20009;-79
2021/04/29 12:13:51;;;;;;;4.63;1.23;;;21.40;52.90;;;;;;6216873;23;20456;-78
2021/04/29 12:16:23;;;;;;;5.15;1.50;;;21.40;52.70;;;;;;6244622;23;20000;-81
2021/04/29 12:18:53;;;;;;;2.78;1.42;;;21.30;52.70;;;;;;6244718;22;20004;-78
2021/04/29 12:21:22;;;;;;;3.60;1.50;;;21.30;52.60;;;;;;6244832;23;20035;-77
2021/04/29 12:24:11;;;;;;;3.90;1.45;;;21.20;52.60;;;;;;6244885;23;20004;-77
2021/04/29 12:26:37;;;;;;;4.93;1.85;;;21.20;52.70;;;;;;6244448;22;20392;-82
2021/04/29 12:29:11;;;;;;;3.80;1.50;;;21.20;52.60;;;;;;6244545;23;20059;-80
2021/04/29 12:31:37;;;;;;;6.22;2.30;;;21.10;52.80;;;;;;6244933;23;20004;-78
2021/04/29 12:34:14;;;;;;;4.30;1.65;;;21.10;52.80;;;;;;6243478;23;20000;-76
2021/04/29 12:36:59;;;;;;;4.43;1.17;;;21.00;52.80;;;;;;6244420;23;20425;-77
2021/04/29 12:39:28;;;;;;;3.35;1.50;;;20.90;52.90;;;;;;6244083;23;20008;-78
2021/04/29 12:41:59;;;;;;;3.55;1.60;;;20.90;52.90;;;;;;6243975;23;20008;-78
2021/04/29 12:45:01;;;;;;;4.15;1.80;;;20.80;53.00;;;;;;6243267;23;20004;-80
2021/04/29 12:47:37;;;;;;;2.65;1.38;;;20.90;52.70;;;;;;6243904;22;20000;-78
2021/04/29 12:50:03;;;;;;;2.70;1.58;;;20.80;52.70;;;;;;6244635;23;20012;-80
2021/04/29 12:52:31;;;;;;;4.03;1.85;;;20.80;52.60;;;;;;6244307;23;20380;-79
2021/04/29 12:54:57;;;;;;;3.47;1.38;;;20.80;52.60;;;;;;6244425;23;20079;-76
2021/04/29 12:57:27;;;;;;;2.60;1.27;;;20.70;52.40;;;;;;6244275;23;20474;-79
2021/04/29 12:59:56;;;;;;;2.75;1.13;;;20.70;52.40;;;;;;6244613;23;20008;-79